createdAt,value
2018-09-26T00:01:46.828Z,7.00
2018-09-26T00:04:21.590Z,6.90
2018-09-26T00:06:50.733Z,6.90
2018-09-26T00:09:19.105Z,6.70
2018-09-26T00:11:47.459Z,6.80
2018-09-26T00:14:15.804Z,6.70
2018-09-26T00:16:44.174Z,6.60
2018-09-26T00:19:12.511Z,6.60
2018-09-26T00:21:40.843Z,6.70
2018-09-26T00:24:09.213Z,6.70
2018-09-26T00:26:37.569Z,6.70
2018-09-26T00:29:06.051Z,6.60
2018-09-26T00:31:34.431Z,6.50
2018-09-26T00:34:02.774Z,6.60
2018-09-26T00:36:31.166Z,6.50
2018-09-26T00:39:00.067Z,6.50
2018-09-26T00:41:28.375Z,6.60
2018-09-26T00:43:56.736Z,6.50
2018-09-26T00:46:25.088Z,6.30
2018-09-26T00:48:53.707Z,6.40
2018-09-26T00:51:22.060Z,6.40
2018-09-26T00:53:50.448Z,6.40
2018-09-26T00:56:18.797Z,6.40
2018-09-26T00:58:47.147Z,6.50
2018-09-26T01:01:15.910Z,6.40
2018-09-26T01:03:44.224Z,6.40
2018-09-26T01:06:12.686Z,6.60
2018-09-26T01:08:41.015Z,6.30
2018-09-26T01:11:09.352Z,6.40
2018-09-26T01:13:37.714Z,6.60
2018-09-26T01:16:06.189Z,6.50
2018-09-26T01:18:34.540Z,6.40
2018-09-26T01:21:02.936Z,6.30
2018-09-26T01:23:31.297Z,6.40
2018-09-26T01:25:59.622Z,6.40
2018-09-26T01:28:27.926Z,6.40
2018-09-26T01:30:56.364Z,6.40
2018-09-26T01:33:25.236Z,6.40
2018-09-26T01:35:53.608Z,6.40
2018-09-26T01:38:21.918Z,6.50
2018-09-26T01:40:50.481Z,6.40
2018-09-26T01:43:18.855Z,6.50
2018-09-26T01:45:47.318Z,6.60
2018-09-26T01:48:15.671Z,6.40
2018-09-26T01:50:44.392Z,6.40
2018-09-26T01:53:12.751Z,6.40
2018-09-26T01:55:41.173Z,6.50
2018-09-26T01:58:09.507Z,6.40
2018-09-26T02:00:37.906Z,6.30
2018-09-26T02:03:06.847Z,6.40
2018-09-26T02:05:35.781Z,6.30
2018-09-26T02:08:04.725Z,6.30
2018-09-26T02:10:33.077Z,6.50
2018-09-26T02:13:01.674Z,6.50
2018-09-26T02:15:30.019Z,6.50
2018-09-26T02:17:58.384Z,6.30
2018-09-26T02:20:26.787Z,6.40
2018-09-26T02:22:55.767Z,6.40
2018-09-26T02:25:24.159Z,6.50
2018-09-26T02:27:52.553Z,6.30
2018-09-26T02:30:20.903Z,6.30
2018-09-26T02:32:49.315Z,6.30
2018-09-26T02:35:17.723Z,6.20
2018-09-26T02:37:46.086Z,6.40
2018-09-26T02:40:14.393Z,6.20
2018-09-26T02:42:42.815Z,6.20
2018-09-26T02:45:11.194Z,6.30
2018-09-26T02:47:39.559Z,6.40
2018-09-26T02:50:08.368Z,6.30
2018-09-26T02:52:36.727Z,6.20
2018-09-26T02:55:05.672Z,6.10
2018-09-26T02:57:34.288Z,6.00
2018-09-26T03:00:02.995Z,6.00
2018-09-26T03:02:31.331Z,6.00
2018-09-26T03:04:59.752Z,6.00
2018-09-26T03:07:28.069Z,6.00
2018-09-26T03:09:56.415Z,6.10
2018-09-26T03:12:25.169Z,6.30
2018-09-26T03:14:54.060Z,6.20
2018-09-26T03:17:22.416Z,6.20
2018-09-26T03:19:50.816Z,6.10
2018-09-26T03:22:19.126Z,6.10
2018-09-26T03:24:47.984Z,6.10
2018-09-26T03:27:16.332Z,6.10
2018-09-26T03:29:44.676Z,6.10
2018-09-26T03:32:13.001Z,6.00
2018-09-26T03:34:41.340Z,6.10
2018-09-26T03:37:09.686Z,6.20
2018-09-26T03:39:38.019Z,6.10
2018-09-26T03:42:06.350Z,6.10
2018-09-26T03:44:34.685Z,6.10
2018-09-26T03:47:03.609Z,6.10
2018-09-26T03:49:31.948Z,6.10
2018-09-26T03:52:00.294Z,6.10
2018-09-26T03:54:28.639Z,5.90
2018-09-26T03:56:56.958Z,5.80
2018-09-26T03:59:25.270Z,5.90
2018-09-26T04:01:53.618Z,5.80
2018-09-26T04:04:21.964Z,5.80
2018-09-26T04:06:50.337Z,5.70
2018-09-26T04:09:18.672Z,5.70
2018-09-26T04:11:47.007Z,5.70
2018-09-26T04:14:15.403Z,5.70
2018-09-26T04:16:43.975Z,5.70
2018-09-26T04:19:12.323Z,5.90
2018-09-26T04:21:40.663Z,5.80
2018-09-26T04:24:09.038Z,5.80
2018-09-26T04:26:37.576Z,5.90
2018-09-26T04:29:05.848Z,5.80
2018-09-26T04:31:34.199Z,5.80
2018-09-26T04:34:02.577Z,5.90
2018-09-26T04:36:30.963Z,5.90
2018-09-26T04:38:59.354Z,5.90
2018-09-26T04:41:27.799Z,5.90
2018-09-26T04:43:56.463Z,6.20
2018-09-26T04:46:24.825Z,6.10
2018-09-26T04:48:53.171Z,6.00
2018-09-26T04:51:21.551Z,6.00
2018-09-26T04:53:49.912Z,5.90
2018-09-26T04:56:18.283Z,5.90
2018-09-26T04:58:46.623Z,6.20
2018-09-26T05:01:14.933Z,5.90
2018-09-26T05:03:43.293Z,6.00
2018-09-26T05:06:11.634Z,5.70
2018-09-26T05:08:39.961Z,5.60
2018-09-26T05:11:08.503Z,5.80
2018-09-26T05:13:36.863Z,5.60
2018-09-26T05:16:05.212Z,5.70
2018-09-26T05:18:38.671Z,5.60
2018-09-26T05:21:07.362Z,5.60
2018-09-26T05:23:35.697Z,5.60
2018-09-26T05:26:04.340Z,5.80
2018-09-26T05:28:32.824Z,5.90
2018-09-26T05:31:01.134Z,5.80
2018-09-26T05:33:29.426Z,5.80
2018-09-26T05:35:58.164Z,5.80
2018-09-26T05:38:27.230Z,5.90
2018-09-26T05:40:55.558Z,5.90
2018-09-26T05:43:24.033Z,5.90
2018-09-26T05:45:52.384Z,6.00
2018-09-26T05:48:20.716Z,6.20
2018-09-26T05:50:49.066Z,6.70
2018-09-26T05:53:17.416Z,7.20
2018-09-26T05:55:45.852Z,7.70
2018-09-26T05:58:14.206Z,8.00
2018-09-26T06:00:43.275Z,8.00
2018-09-26T06:03:11.618Z,7.50
2018-09-26T06:05:40.199Z,7.20
2018-09-26T06:08:08.542Z,8.10
2018-09-26T06:10:36.876Z,8.20
2018-09-26T06:13:05.256Z,8.50
2018-09-26T06:15:33.923Z,9.10
2018-09-26T06:18:02.541Z,9.20
2018-09-26T06:20:30.884Z,9.30
2018-09-26T06:22:59.214Z,9.50
2018-09-26T06:25:27.863Z,9.60
2018-09-26T06:27:56.301Z,10.00
2018-09-26T06:30:24.688Z,10.20
2018-09-26T06:32:53.046Z,10.30
2018-09-26T06:35:21.417Z,10.10
2018-09-26T06:37:49.767Z,10.10
2018-09-26T06:40:18.175Z,10.50
2018-09-26T06:42:47.511Z,10.70
2018-09-26T06:45:16.231Z,11.30
2018-09-26T06:47:44.587Z,11.10
2018-09-26T06:50:12.909Z,11.30
2018-09-26T06:52:41.400Z,11.40
2018-09-26T06:55:09.779Z,11.80
2018-09-26T06:57:38.147Z,11.60
2018-09-26T07:00:07.190Z,11.30
2018-09-26T07:02:35.767Z,10.80
2018-09-26T07:05:04.964Z,11.30
2018-09-26T07:07:33.375Z,10.80
2018-09-26T07:10:01.730Z,10.60
2018-09-26T07:12:30.517Z,10.20
2018-09-26T07:14:59.804Z,10.50
2018-09-26T07:17:28.446Z,10.80
2018-09-26T07:19:58.218Z,10.30
2018-09-26T07:22:26.597Z,10.10
2018-09-26T07:24:55.012Z,10.00
2018-09-26T07:27:23.420Z,10.50
2018-09-26T07:29:51.774Z,10.50
2018-09-26T07:32:20.600Z,10.50
2018-09-26T07:34:48.926Z,10.80
2018-09-26T07:37:17.376Z,11.30
2018-09-26T07:39:45.736Z,11.90
2018-09-26T07:42:14.116Z,12.90
2018-09-26T07:44:42.490Z,13.40
2018-09-26T07:47:10.868Z,13.30
2018-09-26T07:49:39.234Z,13.50
2018-09-26T07:52:08.059Z,13.30
2018-09-26T07:54:36.428Z,13.90
2018-09-26T07:57:04.814Z,14.60
2018-09-26T07:59:33.179Z,14.30
2018-09-26T08:02:01.541Z,16.10
2018-09-26T08:04:29.906Z,15.00
2018-09-26T08:06:58.415Z,15.10
2018-09-26T08:09:26.781Z,16.10
2018-09-26T08:11:55.250Z,15.70
2018-09-26T08:14:23.502Z,15.70
2018-09-26T08:16:51.824Z,15.80
2018-09-26T08:19:20.195Z,16.10
2018-09-26T08:21:48.557Z,17.20
2018-09-26T08:24:17.025Z,17.70
2018-09-26T08:26:45.315Z,16.20
2018-09-26T08:29:13.666Z,16.70
2018-09-26T08:31:42.127Z,17.00
2018-09-26T08:34:10.463Z,17.70
2018-09-26T08:36:38.827Z,18.00
2018-09-26T08:39:10.201Z,17.20
2018-09-26T08:41:38.615Z,17.40
2018-09-26T08:44:07.379Z,17.20
2018-09-26T08:46:35.756Z,17.00
2018-09-26T08:49:04.127Z,17.40
2018-09-26T08:51:32.478Z,18.90
2018-09-26T08:54:00.983Z,17.30
2018-09-26T08:56:29.386Z,16.80
2018-09-26T08:58:57.763Z,17.30
2018-09-26T09:01:31.379Z,16.80
2018-09-26T09:03:59.769Z,17.30
2018-09-26T09:06:28.165Z,17.70
2018-09-26T09:08:56.512Z,17.60
2018-09-26T09:11:24.879Z,18.00
2018-09-26T09:13:53.239Z,18.10
2018-09-26T09:16:21.627Z,19.50
2018-09-26T09:18:50.009Z,19.00
2018-09-26T09:21:18.370Z,18.90
2018-09-26T09:23:46.749Z,18.00
2018-09-26T09:26:15.095Z,20.00
2018-09-26T09:28:43.428Z,20.20
2018-09-26T09:31:11.905Z,20.50
2018-09-26T09:33:40.288Z,18.70
2018-09-26T09:36:08.660Z,18.50
2018-09-26T09:38:37.032Z,18.70
2018-09-26T09:41:05.515Z,18.40
2018-09-26T09:43:33.909Z,19.20
2018-09-26T09:46:02.292Z,20.00
2018-09-26T09:48:30.809Z,19.80
2018-09-26T09:50:59.172Z,20.00
2018-09-26T09:53:27.530Z,19.80
2018-09-26T09:55:55.915Z,21.20
2018-09-26T09:58:24.282Z,20.50
2018-09-26T10:00:58.082Z,19.70
2018-09-26T10:03:26.456Z,20.20
2018-09-26T10:05:54.832Z,19.70
2018-09-26T10:08:23.547Z,19.30
2018-09-26T10:10:51.893Z,20.20
2018-09-26T10:13:20.323Z,19.70
2018-09-26T10:15:48.680Z,20.30
2018-09-26T10:18:17.086Z,20.30
2018-09-26T10:20:45.441Z,20.00
2018-09-26T10:23:13.819Z,19.80
2018-09-26T10:25:42.201Z,18.00
2018-09-26T10:28:10.582Z,17.20
2018-09-26T10:30:39.259Z,16.90
2018-09-26T10:33:07.650Z,16.80
2018-09-26T10:35:36.033Z,17.90
2018-09-26T10:38:04.821Z,17.80
2018-09-26T10:40:33.107Z,17.50
2018-09-26T10:43:01.470Z,17.60
2018-09-26T10:45:29.801Z,16.90
2018-09-26T10:47:58.321Z,17.20
2018-09-26T10:50:26.972Z,18.20
2018-09-26T10:52:55.319Z,17.80
2018-09-26T10:55:23.963Z,18.80
2018-09-26T10:57:52.345Z,17.90
2018-09-26T11:00:20.795Z,17.80
2018-09-26T11:02:49.161Z,17.80
2018-09-26T11:05:17.540Z,18.60
2018-09-26T11:07:45.900Z,17.90
2018-09-26T11:10:14.281Z,19.30
2018-09-26T11:12:42.621Z,19.40
2018-09-26T11:15:10.971Z,18.80
2018-09-26T11:17:39.328Z,18.30
2018-09-26T11:20:07.983Z,17.80
2018-09-26T11:22:36.611Z,18.50
2018-09-26T11:25:05.028Z,18.30
2018-09-26T11:27:33.434Z,19.20
2018-09-26T11:30:01.800Z,18.90
2018-09-26T11:32:30.140Z,18.20
2018-09-26T11:34:58.554Z,19.20
2018-09-26T11:37:26.997Z,19.20
2018-09-26T11:39:55.446Z,20.10
2018-09-26T11:42:23.814Z,20.50
2018-09-26T11:44:52.320Z,20.50
2018-09-26T11:47:20.626Z,20.40
2018-09-26T11:49:49.124Z,19.20
2018-09-26T11:52:17.586Z,19.00
2018-09-26T11:54:45.961Z,21.00
2018-09-26T11:57:14.362Z,20.20
2018-09-26T11:59:43.086Z,19.90
2018-09-26T12:02:11.483Z,20.30
2018-09-26T12:04:39.817Z,20.70
2018-09-26T12:07:08.231Z,20.50
2018-09-26T12:09:36.563Z,20.10
2018-09-26T12:12:04.953Z,19.80
2018-09-26T12:14:33.373Z,19.40
2018-09-26T12:17:01.747Z,20.00
2018-09-26T12:19:30.083Z,20.40
2018-09-26T12:21:58.502Z,20.30
2018-09-26T12:24:27.049Z,21.20
2018-09-26T12:26:55.387Z,20.40
2018-09-26T12:29:23.753Z,19.30
2018-09-26T12:31:52.159Z,19.50
2018-09-26T12:34:20.551Z,19.20
2018-09-26T12:36:48.897Z,19.40
2018-09-26T12:39:17.286Z,20.20
2018-09-26T12:41:45.643Z,20.20
2018-09-26T12:44:14.004Z,20.00
2018-09-26T12:46:42.339Z,19.70
2018-09-26T12:49:10.698Z,19.20
2018-09-26T12:51:39.084Z,19.30
2018-09-26T12:54:07.505Z,19.30
2018-09-26T12:56:35.861Z,19.30
2018-09-26T12:59:04.335Z,18.90
2018-09-26T13:01:33.051Z,20.70
2018-09-26T13:04:01.471Z,20.70
2018-09-26T13:06:29.822Z,19.80
2018-09-26T13:08:58.195Z,20.10
2018-09-26T13:11:26.652Z,19.50
2018-09-26T13:13:55.016Z,19.10
2018-09-26T13:16:23.434Z,18.40
2018-09-26T13:18:51.815Z,18.40
2018-09-26T13:21:20.081Z,18.50
2018-09-26T13:23:48.484Z,18.40
2018-09-26T13:26:16.952Z,18.70
2018-09-26T13:28:45.274Z,18.80
2018-09-26T13:31:13.598Z,19.10
2018-09-26T13:33:41.960Z,19.20
2018-09-26T13:36:10.304Z,19.50
2018-09-26T13:38:38.710Z,19.50
2018-09-26T13:41:07.101Z,18.50
2018-09-26T13:43:35.540Z,18.20
2018-09-26T13:46:03.961Z,18.40
2018-09-26T13:48:32.317Z,18.60
2018-09-26T13:51:00.728Z,18.20
2018-09-26T13:53:29.335Z,18.20
2018-09-26T13:55:58.039Z,18.30
2018-09-26T13:58:26.416Z,18.40
2018-09-26T14:00:54.828Z,18.60
2018-09-26T14:03:23.300Z,18.60
2018-09-26T14:05:51.678Z,18.20
2018-09-26T14:08:20.020Z,18.10
2018-09-26T14:10:48.552Z,18.30
2018-09-26T14:13:16.895Z,18.80
2018-09-26T14:15:45.296Z,18.70
2018-09-26T14:18:14.395Z,18.40
2018-09-26T14:20:42.724Z,18.30
2018-09-26T14:23:11.220Z,18.50
2018-09-26T14:25:39.497Z,18.40
2018-09-26T14:28:07.968Z,18.20
2018-09-26T14:30:36.447Z,18.20
2018-09-26T14:33:04.715Z,18.60
2018-09-26T14:35:33.063Z,18.50
2018-09-26T14:38:01.597Z,18.50
2018-09-26T14:40:30.053Z,18.10
2018-09-26T14:42:58.497Z,18.00
2018-09-26T14:45:26.900Z,18.60
2018-09-26T14:47:55.255Z,18.30
2018-09-26T14:50:23.828Z,18.10
2018-09-26T14:52:52.194Z,18.10
2018-09-26T14:55:20.636Z,18.40
2018-09-26T14:57:48.963Z,18.30
2018-09-26T15:00:17.517Z,18.10
2018-09-26T15:02:46.213Z,18.10
2018-09-26T15:05:14.603Z,18.00
2018-09-26T15:07:42.986Z,17.80
2018-09-26T15:10:11.619Z,17.80
2018-09-26T15:12:40.539Z,17.80
2018-09-26T15:15:08.945Z,17.70
2018-09-26T15:17:37.321Z,17.80
2018-09-26T15:20:06.182Z,17.60
2018-09-26T15:22:34.554Z,17.40
2018-09-26T15:25:03.515Z,17.30
2018-09-26T15:27:31.929Z,17.40
2018-09-26T15:30:00.309Z,17.30
2018-09-26T15:32:28.715Z,17.10
2018-09-26T15:34:57.172Z,17.20
2018-09-26T15:37:25.578Z,17.10
2018-09-26T15:39:53.923Z,17.10
2018-09-26T15:42:22.359Z,17.00
2018-09-26T15:44:50.721Z,17.10
2018-09-26T15:47:19.093Z,17.00
2018-09-26T15:49:47.456Z,16.90
2018-09-26T15:52:16.257Z,16.80
2018-09-26T15:54:44.639Z,16.80
2018-09-26T15:57:13.029Z,17.00
2018-09-26T15:59:41.483Z,16.70
2018-09-26T16:02:09.857Z,16.90
2018-09-26T16:04:38.248Z,16.60
2018-09-26T16:07:06.738Z,16.60
2018-09-26T16:09:35.118Z,16.60
2018-09-26T16:12:04.148Z,16.70
2018-09-26T16:14:32.481Z,16.50
2018-09-26T16:17:00.890Z,16.50
2018-09-26T16:19:29.405Z,16.50
2018-09-26T16:21:58.162Z,16.50
2018-09-26T16:24:26.600Z,16.40
2018-09-26T16:26:54.988Z,16.40
2018-09-26T16:29:23.374Z,16.30
2018-09-26T16:31:51.811Z,16.30
2018-09-26T16:34:20.284Z,16.30
2018-09-26T16:36:48.906Z,16.20
2018-09-26T16:39:17.490Z,16.00
2018-09-26T16:41:45.825Z,16.00
2018-09-26T16:44:14.377Z,16.00
2018-09-26T16:46:42.946Z,15.90
2018-09-26T16:49:11.534Z,15.80
2018-09-26T16:51:39.965Z,15.80
2018-09-26T16:54:08.438Z,15.70
2018-09-26T16:56:36.945Z,15.60
2018-09-26T16:59:05.545Z,15.50
2018-09-26T17:01:34.434Z,15.50
2018-09-26T17:04:02.809Z,15.50
2018-09-26T17:06:31.220Z,15.50
2018-09-26T17:09:00.475Z,15.30
2018-09-26T17:11:28.860Z,15.40
2018-09-26T17:13:57.275Z,15.30
2018-09-26T17:16:25.802Z,15.20
2018-09-26T17:18:54.131Z,15.20
2018-09-26T17:21:22.519Z,15.20
2018-09-26T17:23:50.861Z,15.10
2018-09-26T17:26:19.301Z,15.00
2018-09-26T17:28:47.863Z,15.00
2018-09-26T17:31:16.128Z,15.00
2018-09-26T17:33:44.487Z,14.90
2018-09-26T17:36:12.978Z,14.80
2018-09-26T17:38:41.831Z,14.90
2018-09-26T17:41:10.226Z,14.80
2018-09-26T17:43:38.648Z,14.80
2018-09-26T17:46:07.956Z,14.70
2018-09-26T17:48:36.444Z,14.60
2018-09-26T17:51:04.830Z,14.60
2018-09-26T17:53:33.236Z,14.60
2018-09-26T17:56:01.628Z,14.60
2018-09-26T17:58:30.008Z,14.50
2018-09-26T18:00:58.406Z,14.40
2018-09-26T18:03:26.764Z,14.40
2018-09-26T18:05:55.152Z,14.40
2018-09-26T18:08:23.836Z,14.30
2018-09-26T18:10:52.230Z,14.40
2018-09-26T18:13:20.616Z,14.40
2018-09-26T18:15:49.016Z,14.40
2018-09-26T18:18:17.434Z,14.40
2018-09-26T18:20:45.848Z,14.40
2018-09-26T18:23:14.261Z,14.40
2018-09-26T18:25:42.810Z,14.30
2018-09-26T18:28:11.222Z,14.20
2018-09-26T18:30:40.249Z,14.20
2018-09-26T18:33:10.765Z,14.20
2018-09-26T18:35:39.382Z,14.20
2018-09-26T18:38:07.806Z,14.10
2018-09-26T18:40:36.219Z,14.10
2018-09-26T18:43:04.603Z,14.10
2018-09-26T18:45:32.958Z,14.00
2018-09-26T18:48:01.297Z,14.00
2018-09-26T18:50:30.193Z,14.00
2018-09-26T18:52:58.719Z,14.00
2018-09-26T18:55:27.065Z,14.00
2018-09-26T18:57:55.433Z,13.80
2018-09-26T19:00:23.808Z,13.90
2018-09-26T19:02:52.466Z,13.80
2018-09-26T19:05:20.883Z,13.80
2018-09-26T19:07:49.303Z,13.80
2018-09-26T19:10:17.827Z,13.70
2018-09-26T19:12:46.257Z,13.70
2018-09-26T19:15:14.669Z,13.80
2018-09-26T19:17:43.283Z,13.80
2018-09-26T19:20:11.924Z,13.70
2018-09-26T19:22:40.258Z,13.70
2018-09-26T19:25:08.655Z,13.70
2018-09-26T19:27:37.206Z,13.60
2018-09-26T19:30:05.746Z,13.60
2018-09-26T19:32:34.102Z,13.60
2018-09-26T19:35:02.530Z,13.60
2018-09-26T19:37:32.332Z,13.50
2018-09-26T19:40:00.823Z,13.40
2018-09-26T19:42:29.196Z,13.50
2018-09-26T19:44:57.606Z,13.40
2018-09-26T19:47:26.167Z,13.40
2018-09-26T19:49:54.536Z,13.40
2018-09-26T19:52:22.889Z,13.40
2018-09-26T19:54:51.260Z,13.30
2018-09-26T19:57:19.649Z,13.30
2018-09-26T19:59:48.106Z,13.20
2018-09-26T20:02:16.472Z,13.20
2018-09-26T20:04:45.045Z,13.20
2018-09-26T20:07:13.511Z,13.10
2018-09-26T20:09:42.003Z,13.10
2018-09-26T20:12:10.676Z,13.10
2018-09-26T20:14:39.039Z,13.10
2018-09-26T20:17:07.639Z,13.00
2018-09-26T20:19:36.141Z,13.10
2018-09-26T20:22:05.748Z,13.00
2018-09-26T20:24:34.086Z,12.90
2018-09-26T20:27:02.477Z,12.90
2018-09-26T20:29:31.007Z,12.90
2018-09-26T20:31:59.227Z,12.80
2018-09-26T20:34:27.604Z,12.80
2018-09-26T20:36:56.005Z,12.80
2018-09-26T20:39:24.351Z,12.70
2018-09-26T20:41:53.379Z,12.60
2018-09-26T20:44:21.746Z,12.60
2018-09-26T20:46:50.158Z,12.60
2018-09-26T20:49:18.503Z,12.60
2018-09-26T20:51:47.089Z,12.60
2018-09-26T20:54:15.448Z,12.60
2018-09-26T20:56:43.863Z,12.80
2018-09-26T20:59:12.538Z,12.80
2018-09-26T21:01:40.880Z,12.80
2018-09-26T21:04:09.261Z,12.90
2018-09-26T21:06:37.722Z,12.90
2018-09-26T21:09:08.178Z,13.00
2018-09-26T21:11:36.644Z,13.00
2018-09-26T21:14:04.970Z,13.00
2018-09-26T21:16:33.338Z,13.10
2018-09-26T21:19:01.849Z,13.10
2018-09-26T21:21:30.233Z,13.00
2018-09-26T21:23:58.594Z,13.00
2018-09-26T21:26:27.094Z,13.00
2018-09-26T21:28:55.537Z,13.10
2018-09-26T21:31:24.173Z,13.00
2018-09-26T21:33:52.439Z,13.00
2018-09-26T21:36:21.061Z,12.90
2018-09-26T21:38:49.390Z,12.90
2018-09-26T21:41:17.808Z,12.80
2018-09-26T21:43:46.258Z,12.70
2018-09-26T21:46:14.622Z,12.70
2018-09-26T21:48:43.410Z,12.60
2018-09-26T21:51:11.796Z,12.60
2018-09-26T21:53:40.175Z,12.60
2018-09-26T21:56:08.622Z,12.60
2018-09-26T21:58:36.985Z,12.50
2018-09-26T22:01:09.635Z,12.60
2018-09-26T22:03:38.132Z,12.50
2018-09-26T22:06:06.523Z,12.40
2018-09-26T22:08:34.906Z,12.40
2018-09-26T22:11:03.902Z,12.40
2018-09-26T22:13:32.280Z,12.30
2018-09-26T22:16:00.667Z,12.30
2018-09-26T22:18:29.445Z,12.30
2018-09-26T22:20:57.791Z,12.30
2018-09-26T22:23:26.187Z,12.30
2018-09-26T22:25:54.545Z,12.20
2018-09-26T22:28:23.124Z,12.20
2018-09-26T22:30:51.499Z,12.10
2018-09-26T22:33:19.903Z,12.20
2018-09-26T22:35:48.266Z,12.10
2018-09-26T22:38:16.665Z,12.20
2018-09-26T22:40:44.993Z,12.10
2018-09-26T22:43:13.366Z,12.10
2018-09-26T22:45:41.739Z,12.10
2018-09-26T22:48:10.108Z,12.10
2018-09-26T22:50:38.468Z,12.10
2018-09-26T22:53:07.260Z,12.00
2018-09-26T22:55:35.700Z,12.00
2018-09-26T22:58:04.105Z,12.00
2018-09-26T23:00:32.469Z,12.00
2018-09-26T23:03:00.786Z,12.00
2018-09-26T23:05:29.394Z,12.10
2018-09-26T23:07:57.731Z,12.00
2018-09-26T23:10:26.044Z,12.10
2018-09-26T23:12:54.416Z,12.10
2018-09-26T23:15:22.784Z,12.10
2018-09-26T23:17:51.272Z,12.10
2018-09-26T23:20:19.676Z,12.10
2018-09-26T23:22:47.983Z,12.10
2018-09-26T23:25:16.376Z,12.20
2018-09-26T23:27:44.753Z,12.30
2018-09-26T23:30:13.167Z,12.20
2018-09-26T23:32:41.630Z,12.20
2018-09-26T23:35:10.002Z,12.20
2018-09-26T23:37:38.377Z,12.20
2018-09-26T23:40:06.825Z,12.20
2018-09-26T23:42:35.240Z,12.20
2018-09-26T23:45:03.648Z,12.20
2018-09-26T23:47:32.027Z,12.20
2018-09-26T23:50:00.397Z,12.20
2018-09-26T23:52:28.720Z,12.20
2018-09-26T23:54:57.077Z,12.10
2018-09-26T23:57:25.431Z,12.10
2018-09-26T23:59:53.813Z,12.00
